Timeline UpdatesTrip UpdatesNews PostsPvt PostsTravel TipsAdmin PostsConv PostsFollowed PostsChat RequestsBlog PostsPNR Posts

Disclaimer
Search
 
 
Wed Sep 17, 2014 17:06:37 ISTHomeTrainsΣChainsAtlasPNRForumGalleryNewsFAQTripsMembersLoginFeedback
No Recent News for this Train
Other Trains in the News **new
Latest...
.
Thu Aug 29, 2013 (08:03PM)
⇐ Return Journey: Train# 16317

16318/Himsagar Express

Time-Table HAS CHANGED.
Sep 04 (10:03PM)
Change Departure Station:
Change Arrival Station:
Post a Train Travel TipPost a Train Travel Tip **new
Post a Comment/Question/Picture/VideoPost a Comment/Question/Picture/Video
Pantry/Catering
✓ Pantry Car Avbl
✓ Catering Avbl
Good Food
RSA - Rake Sharing
Rake/Coach Composition
LOCO-SLR-UR-UR-B1-B2-S1-S2-S3-S4-S5-S6-PC-S7*-S8*-S9*-S10*-A1*-UR*-SLR*; * Denotes the TEN-JAT; slip (16788) detached @ED
Loco
JAT to NDLS - TKD WDM 3A/ WDP3A NDLS to CAPE...
Read more...
- RPM WAP 4
News    PNR    Forum    Time-Table    Availability    Fare Chart    Map    Arr/Dep History    Trips    Gallery    ΣChains    X/O    Timeline    
Travel Time: 68h 2m    72 halts    Distance: 3612 km    Avg Speed: 53 km/hr
Type: Mail/Express
Zone: SR/Southern
Departs @ 01:28
Platform# 1
  T    
Chakki Bank/CHKB 
Arrives @ 21:30 +2 nights
Platform# 3
    T  
Kanniyakumari/CAPE 

72 halts. 546 intermediate Stations between Chakki Bank and Kanniyakumari

Show ALL intermediate Stations  Show Old Time-Table

#CodeStation NameX/OArrivesAvgDepartsAvgHaltPFDay#KmSpeedElevZoneAddress
1JATJammu Tawi (3)  -23:45-21-99.365337mNRJammu 180002, Jammu and Kashmir
2SMBXSamba (2)  00:15-00:17-2m12-66.764365mNRDist. Samba, Jammu and Kashmir
3KTHUKathua (2)  00:58-01:00-2m22-23.150396mNRdistt. kathua, Jammu and Kashmir
4PTKCPathankot Cantt (3)  01:28-01:33-5m120.157328mNRPathankot By Pass Ph:0186-2251594, Punjab
5MEXMukerian (3)  02:15-02:17-2m1239.953257mNRMukerian distt. hosiharpur, Punjab
6DZADasuya (2)X  02:34-02:36-2m1255.058251mNRDasuya distt. hoshiarpur, Punjab
7TDOTanda Urmar (3)  02:52-02:54-2m2270.362239mNRUrmar Tanda, Punjab
8JRCJalandhar Cantt. Junction (3)  03:35-03:40-5m32112.654239mNRNear Rama Mandi, Punjab
9PGWPhagwara Junction (3)  03:58-04:00-2m12128.975245mNRPhagwara, Punjab
10PHRPhillaur Junction (3)X  04:18-04:20-2m12151.420246mNRPhillaur, Punjab
11LDHLudhiana Junction (7)X  05:00-05:15-15m52164.563246mNRLudhiana 141001, Punjab
12QRPKila Raipur (1)  05:32-05:34-2m12182.346262mNRDelhon Pakhowal Rd, Punjab
13AHHAhmadgarh (1)  05:43 05:44-05:45-2 1m12189.941256mNRAhmedgarh, Punjab
14METMalerkotla (2)  06:13 06:14-06:15-2 1m12209.853248mNRMalerkotla., Punjab
15DUIDhuri Junction (4)X  06:35 06:34-07:00 06:35-25 1m--2226.624248mNRDhuri, Punjab
16SAGSangrur (2)X  07:15-07:17-2m12242.635239mNRSangrur, Punjab
17SFMSunam (1)  07:39-07:41-2m12255.471235mNRSunam, Punjab
18LHALehra Gaga (1)  07:59-08:01-2m12276.719227mNRSangrur, Punjab
19JHLJakhal Junction  08:55-09:00-5m--2293.767225mNRJakhal, Haryana
20TUNTohana (2)  09:11-09:13-2m--2305.961232mNRTohana, Haryana
21NRWNarwana Junction (4)X  09:38-09:40-2m--2331.465235mNRWay to Narwana, Haryana
22UCAUchana  09:54-09:56-2m--2346.658225mNRDistrict Jind, Haryana
23BZOBarsola  10:06-10:08-2m--2356.239224mNRDistrict Jind, Haryana
24JINDJind Junction (3)X  10:24 10:22-10:27 10:24-3 2m--2365.364222mNR126102., Haryana
25JNAJulana  10:48-10:50-2m--2391.072226mNRJulana, Haryana
26ROKRohtak Junction (3)  11:18 11:16-11:20 11:18-2m--2422.469220mNRRohtak, Haryana
27BGZBahadurgarh  11:53-11:55-2m--2462.629220mNRBahadurgarh, Haryana
28SSBShakur Basti  12:36-12:38-2m--2482.613216mNRPitampura, Delhi NCT
29NDLSNew Delhi (16)X13:30-14:15-45m72493.428215mNRNew Delhi, Delhi NCT
30NZMDelhi Hazrat Nizamuddin (7)X  14:33 14:31-14:35 14:33-2m42500.842209mNRNew Delhi 110013, Delhi NCT
31FDBFaridabad (4)  15:03-15:05-2m42521.649206mNRold Faridabad, Haryana
32AGCAgra Cantt. (6)X  18:30-18:35-5m12688.596174mNCRAgra, Uttar Pradesh
33DHODholpur Junction (3)  19:10 19:08-19:12 19:10-2m22741.163177mNCRDholpur, Rajasthan
34GWLGwalior Junction (4)X  20:12-20:15-3m12806.473214mNCRGwalior, Madhya Pradesh
35JHSJhansi Junction (7)  21:35-21:45-10m--2904.275259mNCRJhansi, Uttar Pradesh
36BPLBhopal Junction (6)  01:40-01:50-10m131196.055497mWCRBhopal, Madhya Pradesh
37ETItarsi Junction (7)XO  03:30-03:35-5m--31287.760329mWCRItarsi 461111, Madhya Pradesh
38NGPNagpur Junction (8)X  08:30-08:40-10m231584.878314mCRNagpur 440001, Maharashtra
39SEGMSewagram Junction (5)  09:39-09:41-2m--31661.173279mCRWardha, Maharashtra
40CDChandrapur Maharashtra (3)X  11:18-11:20-2m--31779.724194mCRChandrapur 442401, Maharashtra
41BPQBalharshah Junction (5)X  11:50 11:55-12:00 12:10-10 15m131793.484188mCRBallarpur. Ph : 07172 - 240341, Maharashtra
42RDMRamagundam (3)  13:50 13:51-13:52-2 1m231935.263170mSCRKarimnagar Dist. Ph : 08728 - 255237, Telangana
43WLWarangal (3)  15:28-15:33-5m132036.471271mSCRWarangal., Telangana
44KMTKhammam (2)X  17:08 17:04-17:10 17:06-2m132143.951118mSCRKhammam 507001, Telangana
45BZAVijayawada Junction (10)  19:05-19:20-15m632244.37224mSCRVijayawada 520001, Andhra Pradesh
46TELTenali Junction (5)X  19:46-19:48-2m--32275.67716mSCRTel: 08644-227834, Andhra Pradesh
47OGLOngole (3)X  21:11-21:13-2m332382.69512mSCROngole, Andhra Pradesh
48NLRNellore (4)  22:27-22:29-2m332499.43221mSCRNellore, Andhra Pradesh
49GDRGudur Junction (3)  23:41-23:43-2m132537.86919mSCRGudur, Andhra Pradesh
50RURenigunta Junction (5)X  00:55-01:05-10m--42621.240113mSCRChittoor District, Andhra Pradesh
51TPTYTirupati Main (5)  01:20-01:22-2m342631.161150mSCRChittoor Distt, Andhra Pradesh
52CTOChittoor (3)X  02:33-02:35-2m242703.027305mSCR517001., Andhra Pradesh
53KPDKatpadi Junction (5)X  03:48-03:50-2m342736.169213mSRVellore 632007, Tamil Nadu
54JTJJolarpettai Junction (5)  05:03-05:05-2m142819.980405mSRJolarpettai, Tamil Nadu
55SASalem Junction (6)X  06:35-06:40-5m--42940.143283mSRSalem, Tamil Nadu
56EDErode Junction (4)X08:00 08:05-08:15-15 10m343001.579175mSRErode ph.no: 0424-2256111, Tamil Nadu
57TUPTiruppur (2)X  08:58 08:53-09:00 08:55-2m143051.750305mSRTiruppur. Ph:0421-2200450, Tamil Nadu
58CBECoimbatore Main Junction (6)  09:55-10:00-5m543102.244416mSRCoimbatore 641001, Tamil Nadu
59PGTPalakkad Junction (4)X  11:15-11:20-5m--43157.58384mSRPalghat Tel: 0491 2555231, Kerala
60OTPOttappalam (2)  11:43-11:45-2m--43189.24930mSROttapalam, Kerala
61TCRThrissur (4)  12:38 12:39-12:41-3 2m143233.3706mSRThrissur Tel: 0487 2423150, Kerala
62AWYAluva (3)  13:28-13:30-2m143287.93412mSRPh: 0484-2624141, Kerala
63ERNErnakulam Town (North) (2)  14:00-14:05-5m243304.7469mSRTel: 0484 2395198, Kerala
64KTYMKottayam (3)X  15:20 15:23-15:25-5 2m--43364.76715mSRTel: 0481 2563535, Kerala
65TRVLTiruvalla (2)  15:48-15:50-2m--43390.46827mSRPh: 0469-2601314, Kerala
66CNGRChengannur (3)X  15:58-16:00-2m143399.5616mSRPh: 0479-2452340, Kerala
67KYJKayamkulam Junction (5)X  16:20-16:22-2m--43419.74611mSRAlappuzha Ph;0479-2442042, Kerala
68QLNKollam Junction (6)X  17:15-17:20-5m143460.57616mSRKollam 0474-2746194, Kerala
69TVPThiruvananthapuram Pettah (2)O  18:08 18:09-18:10-2 1m--43522.8318mSRTrivandrum Ph: 04712470181, Kerala
70TVCTrivandrum Central (5)X  19:00-19:05-5m--43525.15812mSRThiruvananthapuram 695001, Kerala
71KZTKulitturai  19:43 19:44-19:45-2 1m--43563.12829mSRMarthandam, Tamil Nadu
72NCJNagercoil Junction (4)  20:55-21:00-5m243596.23122mSRNagercoil-629002, Tamil Nadu
73CAPE•Kanniyakumari (3)•  21:30--343611.7-38mSRKanyakumari, Tamil Nadu
Scroll to Top
Scroll to Bottom